.
WxDataArchive / Data Records for 2013-08-31
2013-08-30 August 2013 2013-09-01

Data Records for Saturday, 31 August 2013

Time	Temp	Chill	HIndex	Humid	Dewpt	 Wind 	HiWind	WindDir	Rain 	Barom 
-----	----	-----	------	-----	-----	------	------	-------	-----	----- 
00:00	81.2	81.2	84.8	69	70.0	0	1	315	0.00	29.729 
00:05	81.1	81.1	84.8	70	70.4	0	1	315	0.00	29.729 
00:10	81.1	81.1	84.8	70	70.4	0	0	---	0.00	29.729 
00:15	80.9	80.9	84.5	70	70.2	0	1	315	0.00	29.729 
00:20	80.9	80.9	84.5	70	70.2	0	0	---	0.00	29.729 
00:25	80.7	80.7	84.3	71	70.4	0	0	---	0.00	29.729 
00:30	80.5	80.5	83.9	71	70.2	0	0	---	0.00	29.737 
00:35	80.3	80.3	83.7	72	70.4	0	0	---	0.00	29.737 
00:40	80.1	80.1	83.5	73	70.6	0	0	---	0.00	29.737 
00:45	79.8	79.8	83.0	73	70.4	0	0	---	0.00	29.742 
00:50	79.6	79.6	82.6	73	70.2	0	0	---	0.00	29.742 
00:55	79.4	79.4	82.4	74	70.4	0	1	315	0.00	29.742 
01:00	79.6	79.6	82.7	74	70.6	0	1	315	0.00	29.747 
01:05	79.6	79.6	82.6	73	70.2	0	1	315	0.00	29.747 
01:10	79.9	79.9	83.0	72	70.0	1	3	315	0.00	29.747 
01:15	80.3	80.3	83.6	71	70.0	1	4	270	0.00	29.739 
01:20	80.5	80.5	83.8	70	69.8	1	3	270	0.00	29.739 
01:25	80.7	80.7	84.1	70	70.0	1	2	270	0.00	29.739 
01:30	80.7	80.7	84.1	70	70.0	1	4	270	0.00	29.728 
01:35	80.9	80.9	84.3	69	69.8	2	5	270	0.00	29.728 
01:40	80.7	80.7	84.0	69	69.6	1	3	270	0.00	29.728 
01:45	80.5	80.5	83.6	69	69.4	2	4	270	0.00	29.721 
01:50	80.3	80.3	83.4	70	69.6	1	2	270	0.00	29.721 
01:55	80.1	80.1	83.1	70	69.4	1	3	270	0.00	29.721 
02:00	80.1	80.1	83.2	71	69.8	1	3	270	0.00	29.727 
02:05	79.8	79.8	82.7	71	69.5	2	4	270	0.00	29.727 
02:10	79.6	79.6	82.4	71	69.3	2	4	270	0.00	29.727 
02:15	79.4	79.4	82.1	71	69.2	3	6	270	0.00	29.738 
02:20	79.2	79.2	81.8	71	69.0	3	6	270	0.00	29.738 
02:25	79.0	79.0	81.6	72	69.2	2	5	292	0.00	29.738 
02:30	78.8	78.8	81.3	73	69.4	2	6	270	0.00	29.742 
02:35	78.5	78.5	80.9	73	69.1	2	5	270	0.00	29.742 
02:40	78.3	78.3	80.6	74	69.3	1	4	270	0.00	29.742 
02:45	77.9	77.9	80.0	75	69.3	2	4	270	0.00	29.751 
02:50	77.7	77.7	79.7	76	69.5	2	4	270	0.00	29.751 
02:55	77.6	77.6	79.6	77	69.8	2	7	270	0.00	29.751 
03:00	77.4	77.4	79.3	77	69.6	1	4	270	0.00	29.756 
03:05	77.2	77.2	78.9	78	69.8	1	4	270	0.00	29.756 
03:10	76.8	76.8	78.3	79	69.8	2	6	270	0.00	29.756 
03:15	76.7	76.7	78.1	80	70.0	2	6	270	0.00	29.758 
03:20	76.3	76.3	77.5	80	69.7	2	4	270	0.00	29.758 
03:25	76.1	76.1	77.1	81	69.8	2	3	315	0.00	29.758 
03:30	76.0	76.0	76.8	82	70.1	1	3	270	0.00	29.753 
03:35	75.8	75.8	76.5	82	69.9	1	3	292	0.00	29.753 
03:40	75.6	75.6	76.1	83	70.1	1	3	292	0.00	29.753 
03:45	75.4	75.4	75.7	84	70.2	1	3	292	0.00	29.751 
03:50	75.3	75.3	75.5	84	70.1	0	1	292	0.00	29.751 
03:55	75.3	75.3	75.5	84	70.1	0	1	292	0.00	29.751 
04:00	75.1	75.1	75.0	85	70.3	0	2	292	0.00	29.756 
04:05	75.1	75.1	75.0	85	70.3	1	3	292	0.00	29.756 
04:10	74.9	74.9	74.9	86	70.4	1	3	292	0.00	29.756 
04:15	74.7	74.7	74.7	86	70.2	0	2	292	0.00	29.752 
04:20	74.6	74.6	74.6	87	70.5	1	4	292	0.00	29.752 
04:25	74.6	74.6	74.6	87	70.5	1	2	292	0.00	29.752 
04:30	74.4	74.4	74.4	88	70.6	1	2	292	0.00	29.750 
04:35	74.4	74.4	74.4	88	70.6	1	3	292	0.00	29.750 
04:40	74.2	74.2	74.2	88	70.4	1	3	292	0.00	29.750 
04:45	74.2	74.2	74.2	88	70.4	1	4	292	0.00	29.747 
04:50	74.0	74.0	74.0	89	70.5	1	3	292	0.00	29.747 
04:55	74.0	74.0	74.0	89	70.5	0	2	315	0.00	29.747 
05:00	74.0	74.0	74.0	89	70.5	1	4	315	0.00	29.747 
05:05	73.9	73.9	73.9	90	70.8	1	3	315	0.00	29.747 
05:10	73.9	73.9	73.9	90	70.8	0	3	315	0.00	29.747 
05:15	73.9	73.9	73.9	90	70.8	0	2	315	0.00	29.750 
05:20	73.9	73.9	73.9	90	70.8	0	1	315	0.00	29.750 
05:25	73.7	73.7	73.7	90	70.6	1	3	315	0.00	29.750 
05:30	73.7	73.7	73.7	90	70.6	0	3	315	0.00	29.755 
05:35	73.7	73.7	73.7	90	70.6	1	3	315	0.00	29.755 
05:40	73.7	73.7	73.7	90	70.6	1	4	315	0.00	29.755 
05:45	73.7	73.7	73.7	91	70.9	0	2	315	0.00	29.752 
05:50	73.5	73.5	73.5	91	70.7	0	2	315	0.00	29.752 
05:55	73.5	73.5	73.5	91	70.7	0	1	315	0.00	29.752 
06:00	73.5	73.5	73.5	91	70.7	0	1	315	0.00	29.756 
06:05	73.3	73.3	73.3	91	70.5	0	0	---	0.00	29.756 
06:10	73.3	73.3	73.3	91	70.5	0	1	315	0.00	29.756 
06:15	73.3	73.3	73.3	91	70.5	0	0	---	0.00	29.765 
06:20	73.2	73.2	73.2	91	70.4	0	1	315	0.00	29.765 
06:25	73.2	73.2	73.2	91	70.4	0	0	---	0.00	29.765 
06:30	73.0	73.0	73.0	91	70.2	0	1	315	0.00	29.764 
06:35	73.0	73.0	73.0	92	70.5	0	0	---	0.00	29.764 
06:40	73.0	73.0	73.0	92	70.5	0	0	---	0.00	29.764 
06:45	73.0	73.0	73.0	92	70.5	0	1	315	0.00	29.766 
06:50	72.8	72.8	72.8	92	70.3	0	1	315	0.00	29.766 
06:55	72.8	72.8	72.8	92	70.3	0	1	315	0.00	29.766 
07:00	72.8	72.8	72.8	92	70.3	0	0	---	0.00	29.766 
07:05	72.7	72.7	72.7	92	70.2	0	0	---	0.00	29.766 
07:10	72.5	72.5	72.5	92	70.0	0	0	---	0.00	29.766 
07:15	72.5	72.5	72.5	92	70.0	0	0	---	0.00	29.769 
07:20	72.3	72.3	72.3	92	69.8	0	0	---	0.00	29.769 
07:25	72.3	72.3	72.3	92	69.8	0	0	---	0.00	29.769 
07:30	72.1	72.1	72.1	92	69.6	0	0	---	0.00	29.779 
07:35	72.1	72.1	72.1	92	69.6	0	0	---	0.00	29.779 
07:40	72.1	72.1	72.1	92	69.6	0	0	---	0.00	29.779 
07:45	72.1	72.1	72.1	92	69.6	0	0	---	0.00	29.779 
07:50	72.3	72.3	72.3	93	70.2	0	0	---	0.00	29.779 
07:55	72.3	72.3	72.3	93	70.2	0	0	---	0.00	29.779 
08:00	72.5	72.5	72.5	93	70.4	0	0	---	0.00	29.780 
08:05	72.7	72.7	72.7	93	70.6	0	0	---	0.00	29.780 
08:10	72.8	72.8	72.8	93	70.7	0	0	---	0.00	29.780 
08:15	73.0	73.0	73.0	93	70.8	0	3	315	0.00	29.785 
08:20	73.2	73.2	73.2	92	70.7	0	2	315	0.00	29.785 
08:25	73.2	73.2	73.2	92	70.7	0	1	315	0.00	29.785 
08:30	73.2	73.2	73.2	92	70.7	0	1	315	0.00	29.791 
08:35	73.3	73.3	73.3	92	70.8	0	0	---	0.00	29.791 
08:40	73.3	73.3	73.3	92	70.8	0	1	315	0.00	29.791 
08:45	73.3	73.3	73.3	92	70.8	0	1	315	0.00	29.802 
08:50	73.3	73.3	73.3	92	70.8	0	1	315	0.00	29.802 
08:55	73.3	73.3	73.3	91	70.5	0	1	315	0.00	29.802 
09:00	73.5	73.5	73.5	91	70.7	0	2	315	0.00	29.807 
09:05	73.7	73.7	73.7	91	70.9	0	1	315	0.00	29.807 
09:10	73.9	73.9	73.9	91	71.1	0	1	315	0.00	29.807 
09:15	73.9	73.9	73.9	90	70.8	0	2	315	0.00	29.815 
09:20	73.9	73.9	73.9	90	70.8	0	2	315	0.00	29.815 
09:25	74.0	74.0	74.0	90	70.9	0	1	315	0.00	29.815 
09:30	74.0	74.0	74.0	89	70.5	0	1	315	0.00	29.817 
09:35	74.2	74.2	74.2	89	70.7	0	1	315	0.00	29.817 
09:40	74.2	74.2	74.2	89	70.7	0	1	315	0.00	29.817 
09:45	74.4	74.4	74.4	89	70.9	0	1	315	0.00	29.817 
09:50	74.6	74.6	74.6	89	71.1	0	1	315	0.00	29.817 
09:55	74.7	74.7	74.7	88	70.9	0	1	315	0.00	29.817 
10:00	74.7	74.7	74.7	88	70.9	0	2	315	0.00	29.823 
10:05	74.9	74.9	74.9	87	70.8	0	0	---	0.00	29.823 
10:10	75.1	75.1	74.7	87	71.0	0	1	315	0.00	29.823 
10:15	75.1	75.1	74.9	86	70.6	0	1	315	0.00	29.826 
10:20	75.4	75.4	75.4	86	70.9	0	2	315	0.00	29.826 
10:25	76.0	76.0	76.6	85	71.2	1	2	315	0.00	29.826 
10:30	76.8	76.8	78.2	82	70.9	0	3	315	0.00	29.821 
10:35	77.2	77.2	78.9	81	70.9	0	1	45	0.00	29.821 
10:40	77.2	77.2	78.9	81	70.9	0	1	45	0.00	29.821 
10:45	77.4	77.4	79.2	80	70.7	0	1	45	0.00	29.819 
10:50	77.9	77.9	80.1	79	70.8	0	1	45	0.00	29.819 
10:55	78.6	78.6	81.2	77	70.8	1	3	45	0.00	29.819 
11:00	79.4	79.4	82.5	75	70.8	0	2	45	0.00	29.813 
11:05	79.6	79.6	82.7	74	70.6	0	2	45	0.00	29.813 
11:10	79.6	79.6	82.6	73	70.2	1	2	45	0.00	29.813 
11:15	79.8	79.8	83.1	74	70.8	0	2	45	0.00	29.807 
11:20	79.9	79.9	83.1	73	70.4	1	3	45	0.00	29.807 
11:25	80.1	80.1	83.2	71	69.8	1	3	45	0.00	29.807 
11:30	80.7	80.7	84.1	70	70.0	0	2	45	0.00	29.806 
11:35	81.2	81.2	84.8	69	70.0	1	2	45	0.00	29.806 
11:40	82.0	82.0	86.2	69	70.8	0	2	45	0.00	29.806 
11:45	82.2	82.2	86.1	67	70.1	1	2	45	0.00	29.804 
11:50	81.6	81.6	85.3	68	70.0	1	3	45	0.00	29.804 
11:55	81.8	81.8	85.9	69	70.6	0	2	45	0.00	29.804 
12:00	82.2	82.2	86.1	67	70.1	0	2	45	0.00	29.802 
12:05	82.8	82.8	87.0	66	70.3	0	3	292	0.00	29.802 
12:10	83.4	83.4	87.8	65	70.4	0	2	292	0.00	29.802 
12:15	83.6	83.6	87.9	64	70.1	2	5	270	0.00	29.800 
12:20	83.6	83.6	87.9	64	70.1	1	3	270	0.00	29.800 
12:25	83.4	83.4	87.6	64	69.9	1	3	270	0.00	29.800 
12:30	83.2	83.2	87.5	65	70.2	1	3	270	0.00	29.796 
12:35	83.2	83.2	87.5	65	70.2	0	2	270	0.00	29.796 
12:40	83.2	83.2	87.2	64	69.7	1	4	270	0.00	29.796 
12:45	83.6	83.6	88.2	65	70.6	1	4	315	0.00	29.796 
12:50	84.0	84.0	88.1	62	69.5	2	4	270	0.00	29.796 
12:55	84.5	84.5	89.0	62	70.0	1	4	270	0.00	29.796 
13:00	84.7	84.7	89.3	62	70.2	1	4	270	0.00	29.791 
13:05	85.5	85.5	90.5	61	70.5	1	2	270	0.00	29.791 
13:10	85.5	85.5	90.2	60	70.0	1	4	292	0.00	29.791 
13:15	85.9	85.9	90.6	59	69.9	1	3	315	0.00	29.785 
13:20	85.7	85.7	89.9	58	69.2	1	4	315	0.00	29.785 
13:25	85.5	85.5	90.2	60	70.0	1	3	315	0.00	29.785 
13:30	85.7	85.7	90.5	60	70.2	1	3	315	0.00	29.781 
13:35	85.7	85.7	90.9	61	70.7	1	3	315	0.00	29.781 
13:40	85.7	85.7	90.2	59	69.7	1	3	315	0.00	29.781 
13:45	84.9	84.9	88.8	59	68.9	2	3	315	0.00	29.790 
13:50	84.5	84.5	88.7	61	69.5	1	2	315	0.00	29.790 
13:55	84.5	84.5	88.7	61	69.5	1	3	315	0.00	29.790 
14:00	84.3	84.3	88.3	61	69.4	1	3	315	0.00	29.787 
14:05	84.3	84.3	88.3	61	69.4	0	2	315	0.00	29.787 
14:10	84.3	84.3	88.3	61	69.4	1	2	315	0.00	29.787 
14:15	84.0	84.0	88.1	62	69.5	1	5	315	0.00	29.791 
14:20	83.8	83.8	88.0	63	69.8	1	3	315	0.00	29.791 
14:25	83.8	83.8	88.0	63	69.8	1	3	292	0.00	29.791 
14:30	83.6	83.6	87.6	63	69.6	1	3	292	0.00	29.792 
14:35	83.4	83.4	87.3	63	69.5	1	5	338	0.00	29.792 
14:40	83.2	83.2	87.2	64	69.7	1	4	292	0.00	29.792 
14:45	83.0	83.0	86.9	64	69.5	1	3	292	0.00	29.786 
14:50	83.2	83.2	87.5	65	70.2	0	2	292	0.00	29.786 
14:55	83.2	83.2	87.2	64	69.7	0	3	292	0.00	29.786 
15:00	83.4	83.4	87.6	64	69.9	0	2	292	0.00	29.793 
15:05	83.4	83.4	87.6	64	69.9	1	2	292	0.00	29.793 
15:10	83.6	83.6	87.9	64	70.1	0	1	292	0.00	29.793 
15:15	83.8	83.8	88.0	63	69.8	0	3	292	0.00	29.791 
15:20	83.8	83.8	88.0	63	69.8	0	0	---	0.00	29.791 
15:25	83.8	83.8	88.3	64	70.3	0	1	292	0.00	29.791 
15:30	84.0	84.0	88.6	64	70.5	0	1	292	0.00	29.782 
15:35	84.0	84.0	88.6	64	70.5	0	1	292	0.00	29.782 
15:40	84.0	84.0	88.9	65	70.9	0	1	292	0.00	29.782 
15:45	83.8	83.8	88.8	66	71.2	0	2	292	0.00	29.780 
15:50	83.4	83.4	88.1	66	70.8	0	1	292	0.00	29.780 
15:55	83.0	83.0	87.6	67	70.9	0	1	292	0.00	29.780 
16:00	82.8	82.8	87.5	68	71.1	0	2	45	0.00	29.771 
16:05	82.6	82.6	87.3	69	71.4	0	2	45	0.00	29.771 
16:10	82.4	82.4	87.0	69	71.2	1	3	292	0.00	29.771 
16:15	82.4	82.4	87.7	72	72.4	1	3	270	0.00	29.779 
16:20	82.2	82.2	87.3	72	72.2	0	2	270	0.00	29.779 
16:25	82.2	82.2	87.3	72	72.2	0	2	270	0.00	29.779 
16:30	82.2	82.2	87.3	72	72.2	0	2	270	0.00	29.772 
16:35	82.4	82.4	87.4	71	72.0	1	4	270	0.00	29.772 
16:40	82.2	82.2	86.8	70	71.4	1	3	270	0.00	29.772 
16:45	82.2	82.2	86.8	70	71.4	1	2	270	0.00	29.788 
16:50	81.8	81.8	86.1	70	71.0	2	4	270	0.00	29.788 
16:55	81.4	81.4	85.7	72	71.5	1	4	270	0.00	29.788 
17:00	81.1	81.1	85.2	72	71.2	1	3	270	0.00	29.791 
17:05	80.9	80.9	85.0	73	71.4	1	3	270	0.00	29.791 
17:10	80.7	80.7	84.6	73	71.2	1	3	270	0.00	29.791 
17:15	80.7	80.7	84.6	73	71.2	0	2	315	0.00	29.770 
17:20	80.9	80.9	85.0	73	71.4	1	3	315	0.00	29.770 
17:25	80.9	80.9	85.0	73	71.4	0	2	270	0.00	29.770 
17:30	80.7	80.7	84.4	72	70.8	0	1	270	0.00	29.755 
17:35	80.7	80.7	84.4	72	70.8	0	2	270	0.00	29.755 
17:40	80.5	80.5	84.2	73	71.0	0	1	270	0.00	29.755 
17:45	80.3	80.3	83.7	72	70.4	0	1	270	0.00	29.734 
17:50	80.3	80.3	83.9	73	70.8	0	1	270	0.00	29.734 
17:55	80.3	80.3	83.9	73	70.8	0	1	270	0.00	29.734 
18:00	80.1	80.1	83.5	73	70.6	0	1	270	0.00	29.729 
18:05	80.1	80.1	83.4	72	70.2	0	1	45	0.00	29.729 
18:10	80.1	80.1	83.4	72	70.2	0	1	45	0.00	29.729 
18:15	80.1	80.1	83.4	72	70.2	0	0	---	0.00	29.722 
18:20	80.1	80.1	83.4	72	70.2	0	1	45	0.00	29.722 
18:25	80.3	80.3	83.7	72	70.4	0	0	---	0.00	29.722 
18:30	80.5	80.5	84.4	74	71.4	0	3	45	0.00	29.725 
18:35	80.7	80.7	84.7	74	71.6	0	2	45	0.00	29.725 
18:40	80.9	80.9	85.3	75	72.2	0	1	45	0.00	29.725 
18:45	80.9	80.9	85.1	74	71.8	0	1	45	0.00	29.724 
18:50	80.5	80.5	84.4	74	71.4	0	1	45	0.00	29.724 
18:55	80.1	80.1	83.6	74	71.0	0	1	45	0.00	29.724 
19:00	79.6	79.6	82.8	75	71.0	0	1	315	0.00	29.723 
19:05	79.2	79.2	82.2	76	71.0	0	0	---	0.00	29.723 
19:10	78.8	78.8	81.5	76	70.6	0	0	---	0.00	29.723 
19:15	78.6	78.6	81.2	77	70.8	0	0	---	0.00	29.727 
19:20	78.5	78.5	81.1	77	70.7	0	0	---	0.00	29.727 
19:25	78.3	78.3	80.8	78	70.9	0	0	---	0.00	29.727 
19:30	78.1	78.1	80.4	78	70.7	0	0	---	0.00	29.738 
19:35	77.9	77.9	80.1	78	70.5	0	0	---	0.00	29.738 
19:40	77.9	77.9	80.1	79	70.8	0	0	---	0.00	29.738 
19:45	77.7	77.7	79.8	79	70.7	0	0	---	0.00	29.741 
19:50	77.7	77.7	79.8	79	70.7	0	0	---	0.00	29.741 
19:55	77.6	77.6	79.6	80	70.9	0	0	---	0.00	29.741 
20:00	77.6	77.6	79.6	80	70.9	0	0	---	0.00	29.755 
20:05	77.6	77.6	79.6	80	70.9	0	0	---	0.00	29.755 
20:10	77.6	77.6	79.6	80	70.9	0	0	---	0.00	29.755 
20:15	77.4	77.4	79.2	80	70.7	0	0	---	0.00	29.770 
20:20	77.4	77.4	79.2	81	71.1	0	0	---	0.00	29.770 
20:25	77.4	77.4	79.2	81	71.1	0	0	---	0.00	29.770 
20:30	77.4	77.4	79.2	81	71.1	0	1	315	0.00	29.773 
20:35	77.2	77.2	78.9	81	70.9	0	0	---	0.00	29.773 
20:40	77.2	77.2	78.9	81	70.9	0	1	315	0.00	29.773 
20:45	77.2	77.2	78.9	81	70.9	0	0	---	0.00	29.778 
20:50	77.2	77.2	78.9	81	70.9	0	0	---	0.00	29.778 
20:55	77.0	77.0	78.5	81	70.7	0	0	---	0.00	29.778 
21:00	77.0	77.0	78.5	81	70.7	0	0	---	0.00	29.773 
21:05	76.8	76.8	78.2	81	70.5	0	1	315	0.00	29.773 
21:10	76.8	76.8	78.2	82	70.9	0	0	---	0.00	29.773 
21:15	76.7	76.7	78.0	82	70.8	0	0	---	0.00	29.775 
21:20	76.5	76.5	77.7	82	70.6	0	0	---	0.00	29.775 
21:25	76.5	76.5	77.7	82	70.6	0	0	---	0.00	29.775 
21:30	76.3	76.3	77.3	82	70.4	0	1	315	0.00	29.783 
21:35	76.3	76.3	77.3	82	70.4	0	0	---	0.00	29.783 
21:40	76.1	76.1	76.9	83	70.5	0	0	---	0.00	29.783 
21:45	76.0	76.0	76.7	83	70.4	0	0	---	0.00	29.786 
21:50	75.8	75.8	76.4	83	70.3	0	0	---	0.00	29.786 
21:55	75.6	75.6	76.0	84	70.4	0	0	---	0.00	29.786 
22:00	75.4	75.4	75.7	84	70.2	0	1	315	0.00	29.782 
22:05	75.3	75.3	75.5	84	70.1	0	1	315	0.00	29.782 
22:10	75.1	75.1	75.2	84	69.9	0	1	315	0.00	29.782 
22:15	74.7	74.7	74.7	83	69.2	0	1	315	0.00	29.786 
22:20	74.6	74.6	74.6	81	68.4	0	1	315	0.00	29.786 
22:25	74.6	74.6	74.6	80	68.0	0	1	315	0.00	29.786 
22:30	74.7	74.7	74.7	79	67.7	0	1	315	0.00	29.791 
22:35	74.9	74.9	74.9	80	68.3	0	1	315	0.00	29.791 
22:40	75.1	75.1	75.7	80	68.5	0	1	315	0.00	29.791 
22:45	75.3	75.3	75.9	81	69.1	0	1	315	0.00	29.795 
22:50	75.4	75.4	76.0	81	69.1	0	1	315	0.00	29.795 
22:55	75.4	75.4	76.0	81	69.1	0	2	315	0.00	29.795 
23:00	75.3	75.3	76.0	80	68.7	0	1	315	0.00	29.785 
23:05	74.9	74.9	74.9	80	68.3	0	2	315	0.00	29.785 
23:10	74.7	74.7	74.7	81	68.5	0	0	---	0.00	29.785 
23:15	74.4	74.4	74.4	81	68.2	0	0	---	0.00	29.771 
23:20	73.9	73.9	73.9	82	68.0	0	1	315	0.00	29.771 
23:25	73.7	73.7	73.7	82	67.9	0	0	---	0.01	29.771 
23:30	73.3	73.3	73.3	83	67.8	0	1	315	0.00	29.773 
23:35	73.2	73.2	73.2	83	67.7	0	0	---	0.00	29.773 
23:40	73.0	73.0	73.0	83	67.5	0	0	---	0.00	29.773 
23:45	72.8	72.8	72.8	84	67.7	0	0	---	0.00	29.778 
23:50	72.7	72.7	72.7	84	67.6	0	0	---	0.00	29.778 
23:55	72.5	72.5	72.5	84	67.4	0	0	---	0.00	29.778 

CoCoRaHS
IN-AL-39
A2 Web Hosting
Creative Commons License
GoDaddy
search engine by freefind advanced

loaded 2018-11-20 14:59:11 • last modified 2010-11-18 10:43:29
Privacy PolicyDisclaimer
• wx.awcolley.com is powered by PmWiki v.2002016 •
• all content (unless otherwise noted) © 2018 A W Colley